7D3 weather

Baldwin Municipal Airport
Baldwin, Michigan, United States

Public forecast

Using degrees Fahrenheit for public forecast. Weather courtesy of forecast.io.

Closest aviation weather report (METAR) to Baldwin Municipal Airport

Closest report is Roben Hood Airport, 17.3 nm (32.0 km) ESE. Retrieved 2020/01/29 14:35 UTC (0 seconds ago):

KRQB 291435Z AUTO 11004KT 10SM OVC025 M02/M06 A3020 RMK AO2 T10221062

Closest aviation forecast (TAF) to Baldwin Municipal Airport

Closest forecast is Manistee Co Blacker Airport, 29.5 nm (54.7 km) NW. Retrieved 2020/01/29 12:27 UTC (2 hours ago):

TAF KMBL 291126Z 2912/3012 00000KT P6SM OVC030 FM291400 06004KT P6SM OVC024 FM292100 10005KT P6SM OVC025 FM300400 11003KT P6SM OVC027